Time;durP1;ratioP1;P1;durP2;ratioP2;P2;SDS_P1;SDS_P2;PMS_P1;PMS_P2;Temp;Humidity;BMP_temperature;BMP_pressure;BME280_temperature;BME280_humidity;BME280_pressure;Samples;Min_cycle;Max_cycle;Signal;HPM_P1;HPM_P2
2022/06/05 00:00:28;;;;;;;;;;;;;;;17.34;62.65;100501.34;5113378;28;19954;-54
2022/06/05 00:03:02;;;;;;;;;;;;;;;17.31;62.37;100493.63;5112575;28;19928;-52
2022/06/05 00:05:32;;;;;;;;;;;;;;;17.27;62.67;100494.72;5113321;28;19931;-52
2022/06/05 00:08:05;;;;;;;;;;;;;;;17.25;62.93;100489.44;5112823;28;19935;-52
2022/06/05 00:10:36;;;;;;;;;;;;;;;17.22;62.97;100493.00;5113288;28;19924;-53
2022/06/05 00:13:07;;;;;;;;;;;;;;;17.18;62.97;100497.72;5112860;28;19931;-52
2022/06/05 00:15:34;;;;;;;;;;;;;;;17.09;63.57;100497.03;5112966;28;19924;-53
2022/06/05 00:18:03;;;;;;;;;;;;;;;17.03;63.66;100511.34;5112869;28;19924;-55
2022/06/05 00:20:31;;;;;;;;;;;;;;;16.95;64.02;100517.94;5113117;28;19931;-52
2022/06/05 00:22:59;;;;;;;;;;;;;;;16.91;63.81;100522.66;5112743;28;19932;-53
2022/06/05 00:25:30;;;;;;;;;;;;;;;16.86;64.37;100508.00;5112863;28;19931;-52
2022/06/05 00:28:01;;;;;;;;;;;;;;;16.83;64.55;100517.97;5112970;28;19927;-53
2022/06/05 00:30:32;;;;;;;;;;;;;;;16.77;64.63;100519.38;5114678;28;19924;-55
2022/06/05 00:33:03;;;;;;;;;;;;;;;16.75;64.74;100504.84;5116887;28;19931;-52
2022/06/05 00:35:35;;;;;;;;;;;;;;;16.68;64.87;100502.63;5116702;28;19938;-52
2022/06/05 00:38:04;;;;;;;;;;;;;;;16.63;64.89;100503.72;5117231;28;19931;-52
2022/06/05 00:40:35;;;;;;;;;;;;;;;16.61;65.09;100502.44;5117115;28;19931;-53
2022/06/05 00:43:03;;;;;;;;;;;;;;;16.59;65.06;100491.53;5116944;28;19924;-53
2022/06/05 00:45:31;;;;;;;;;;;;;;;16.57;65.05;100493.88;5117229;28;19946;-55
2022/06/05 00:47:58;;;;;;;;;;;;;;;16.54;65.07;100497.38;5116992;28;19923;-52
2022/06/05 00:50:27;;;;;;;;;;;;;;;16.50;65.20;100493.63;5117106;28;19923;-52
2022/06/05 00:52:57;;;;;;;;;;;;;;;16.49;64.98;100491.22;5116587;28;19947;-52
2022/06/05 00:55:25;;;;;;;;;;;;;;;16.44;65.13;100481.00;5116529;28;19924;-52
2022/06/05 00:57:54;;;;;;;;;;;;;;;16.35;65.57;100477.50;5116747;28;19923;-52
2022/06/05 01:00:23;;;;;;;;;;;;;;;16.32;65.63;100469.81;5116448;28;19930;-52
2022/06/05 01:02:52;;;;;;;;;;;;;;;16.31;65.77;100470.94;5116946;28;19931;-53
2022/06/05 01:05:20;;;;;;;;;;;;;;;16.28;65.55;100471.69;5116283;28;19928;-54
2022/06/05 01:07:47;;;;;;;;;;;;;;;16.24;65.76;100461.13;5116434;28;20405;-52
2022/06/05 01:10:16;;;;;;;;;;;;;;;16.23;65.92;100458.66;5116500;28;19924;-52
2022/06/05 01:12:47;;;;;;;;;;;;;;;16.18;66.13;100451.28;5116476;28;19924;-53
2022/06/05 01:15:19;;;;;;;;;;;;;;;16.16;66.30;100448.00;5115777;28;20349;-52
2022/06/05 01:17:50;;;;;;;;;;;;;;;16.16;66.25;100447.19;5116441;28;19923;-52
2022/06/05 01:20:24;;;;;;;;;;;;;;;16.15;66.27;100446.38;5116356;28;19946;-52
2022/06/05 01:23:06;;;;;;;;;;;;;;;16.11;66.66;100451.06;5116435;28;19931;-53
2022/06/05 01:25:42;;;;;;;;;;;;;;;16.10;66.51;100443.00;5116327;28;20011;-52
2022/06/05 01:28:11;;;;;;;;;;;;;;;16.09;66.21;100447.81;5116127;28;19931;-55
2022/06/05 01:30:43;;;;;;;;;;;;;;;16.07;66.37;100444.53;5115969;28;19928;-55
2022/06/05 01:33:14;;;;;;;;;;;;;;;16.07;66.08;100443.72;5116170;28;20038;-52
2022/06/05 01:35:44;;;;;;;;;;;;;;;16.02;66.82;100441.94;5115898;28;19931;-52
2022/06/05 01:38:14;;;;;;;;;;;;;;;15.98;66.54;100457.84;5116217;28;19994;-53
2022/06/05 01:40:46;;;;;;;;;;;;;;;15.93;66.64;100452.47;5116088;28;19931;-54
2022/06/05 01:43:15;;;;;;;;;;;;;;;15.79;67.25;100452.81;5114602;28;19924;-54
2022/06/05 01:45:45;;;;;;;;;;;;;;;15.79;67.23;100450.84;5115702;28;19939;-53
2022/06/05 01:48:15;;;;;;;;;;;;;;;15.76;66.72;100450.72;5115964;28;19923;-53
2022/06/05 01:50:46;;;;;;;;;;;;;;;15.72;66.83;100444.97;5115656;28;19924;-52
2022/06/05 01:53:18;;;;;;;;;;;;;;;15.66;67.36;100440.72;5115813;28;19938;-54
2022/06/05 01:55:51;;;;;;;;;;;;;;;15.64;67.41;100431.84;5095228;28;19998;-52
2022/06/05 01:58:20;;;;;;;;;;;;;;;15.61;67.52;100430.56;5095342;28;19928;-52
2022/06/05 02:00:49;;;;;;;;;;;;;;;15.61;67.81;100426.94;5095538;28;19925;-52
2022/06/05 02:03:21;;;;;;;;;;;;;;;15.62;67.39;100425.75;5095413;28;19924;-53
2022/06/05 02:05:50;;;;;;;;;;;;;;;15.64;67.48;100415.00;5095335;28;20353;-52
2022/06/05 02:08:24;;;;;;;;;;;;;;;15.59;67.89;100410.44;5095099;28;19924;-52
2022/06/05 02:10:56;;;;;;;;;;;;;;;15.59;67.92;100412.44;5095092;28;19924;-52
2022/06/05 02:13:23;;;;;;;;;;;;;;;15.58;68.07;100399.53;5094992;28;19936;-52
2022/06/05 02:15:51;;;;;;;;;;;;;;;15.57;68.01;100397.91;5095015;28;19924;-52
2022/06/05 02:18:18;;;;;;;;;;;;;;;15.58;67.80;100388.31;5095347;28;19924;-54
2022/06/05 02:20:45;;;;;;;;;;;;;;;15.56;67.87;100385.03;5094892;28;19924;-54
2022/06/05 02:23:13;;;;;;;;;;;;;;;15.53;68.03;100372.53;5094919;28;19955;-54
2022/06/05 02:25:41;;;;;;;;;;;;;;;15.50;68.09;100376.03;5094884;28;20313;-52
2022/06/05 02:28:12;;;;;;;;;;;;;;;15.51;68.07;100371.25;5094667;28;19931;-53
2022/06/05 02:30:42;;;;;;;;;;;;;;;15.49;68.06;100367.97;5095000;28;20372;-52
2022/06/05 02:33:14;;;;;;;;;;;;;;;15.45;68.05;100356.63;5094733;28;19928;-52
2022/06/05 02:35:46;;;;;;;;;;;;;;;15.41;67.89;100348.09;5094285;28;19935;-53
2022/06/05 02:38:21;;;;;;;;;;;;;;;15.41;68.01;100342.47;5094626;28;19924;-53
2022/06/05 02:41:04;;;;;;;;;;;;;;;15.37;67.82;100341.53;5094510;28;19931;-54
2022/06/05 02:43:38;;;;;;;;;;;;;;;15.32;67.84;100336.16;5094959;28;19931;-52
2022/06/05 02:46:09;;;;;;;;;;;;;;;15.30;67.83;100335.69;5094082;28;19924;-52
2022/06/05 02:48:39;;;;;;;;;;;;;;;15.29;68.04;100325.63;5094484;28;19931;-55
2022/06/05 02:51:10;;;;;;;;;;;;;;;15.29;68.00;100324.81;5094096;28;20391;-52
2022/06/05 02:53:48;;;;;;;;;;;;;;;15.29;68.07;100310.78;5096258;28;20944;-52
2022/06/05 02:56:15;;;;;;;;;;;;;;;15.25;68.34;100312.66;5114168;28;19924;-54
2022/06/05 02:58:44;;;;;;;;;;;;;;;15.23;68.39;100304.59;5114684;28;19923;-54
2022/06/05 03:03:56;;;;;;;;;;;;;;;15.23;68.05;100299.78;5115412;28;19923;-55
2022/06/05 03:06:22;;;;;;;;;;;;;;;15.20;68.06;100305.28;5113927;28;20408;-52
2022/06/05 03:08:49;;;;;;;;;;;;;;;15.20;67.93;100292.09;5113686;28;19935;-53
2022/06/05 03:11:16;;;;;;;;;;;;;;;15.19;67.93;100298.84;5113963;28;19924;-52
2022/06/05 03:13:45;;;;;;;;;;;;;;;15.15;68.57;100297.09;5114400;28;19930;-52
2022/06/05 03:16:12;;;;;;;;;;;;;;;15.17;68.28;100289.16;5113958;28;19924;-52
2022/06/05 03:18:39;;;;;;;;;;;;;;;15.16;68.53;100279.91;5114002;28;19923;-53
2022/06/05 03:21:09;;;;;;;;;;;;;;;15.17;67.79;100267.50;5113727;28;19924;-52
2022/06/05 03:23:36;;;;;;;;;;;;;;;15.17;67.74;100267.50;5114101;28;19997;-54
2022/06/05 03:26:03;;;;;;;;;;;;;;;15.18;67.85;100262.72;5113997;28;19924;-52
2022/06/05 03:28:30;;;;;;;;;;;;;;;15.18;67.96;100259.91;5113630;28;19924;-51
2022/06/05 03:30:59;;;;;;;;;;;;;;;15.18;68.18;100251.50;5113904;28;19931;-53
2022/06/05 03:33:26;;;;;;;;;;;;;;;15.20;68.15;100251.97;5113632;28;19931;-52
2022/06/05 03:35:53;;;;;;;;;;;;;;;15.19;68.43;100234.31;5113661;28;19924;-52
2022/06/05 03:38:20;;;;;;;;;;;;;;;15.21;68.38;100236.78;5113485;28;20372;-54
2022/06/05 03:40:47;;;;;;;;;;;;;;;15.25;68.43;100251.75;5113584;28;19931;-53
2022/06/05 03:43:15;;;;;;;;;;;;;;;15.32;67.95;100256.75;5113674;28;19924;-54
2022/06/05 03:45:42;;;;;;;;;;;;;;;15.36;67.97;100260.50;5113350;28;19924;-54
2022/06/05 03:48:12;;;;;;;;;;;;;;;15.33;68.38;100264.00;5113251;28;19931;-53
2022/06/05 03:50:40;;;;;;;;;;;;;;;15.37;68.23;100273.34;5113272;28;20284;-52
2022/06/05 03:53:08;;;;;;;;;;;;;;;15.41;68.36;100274.28;5113871;28;19986;-52
2022/06/05 03:55:35;;;;;;;;;;;;;;;15.48;68.01;100268.09;5112854;28;19924;-52
2022/06/05 03:58:01;;;;;;;;;;;;;;;15.58;67.87;100259.16;5113578;28;19923;-52
2022/06/05 04:00:29;;;;;;;;;;;;;;;15.63;67.59;100262.56;5112899;28;19924;-55
2022/06/05 04:02:56;;;;;;;;;;;;;;;15.71;67.54;100260.81;5112908;28;20373;-52
2022/06/05 04:05:24;;;;;;;;;;;;;;;15.70;67.48;100250.72;5112304;28;20395;-52
2022/06/05 04:07:51;;;;;;;;;;;;;;;15.78;67.29;100252.59;5113213;28;19924;-52
2022/06/05 04:10:19;;;;;;;;;;;;;;;15.85;67.35;100240.75;5112648;28;20327;-52
2022/06/05 04:12:47;;;;;;;;;;;;;;;15.92;67.05;100234.56;5113381;28;20412;-52
2022/06/05 04:15:14;;;;;;;;;;;;;;;15.97;66.89;100232.31;5113095;28;19930;-52
2022/06/05 04:17:41;;;;;;;;;;;;;;;16.06;66.80;100234.94;5112945;28;19950;-55
2022/06/05 04:20:09;;;;;;;;;;;;;;;16.13;66.65;100246.41;5113059;28;19924;-52
2022/06/05 04:22:38;;;;;;;;;;;;;;;16.19;66.61;100244.16;5112966;28;19924;-52
2022/06/05 04:25:06;;;;;;;;;;;;;;;16.27;66.37;100257.22;5113145;28;19924;-52
2022/06/05 04:27:34;;;;;;;;;;;;;;;16.32;66.34;100253.38;5112662;28;19931;-53
2022/06/05 04:30:01;;;;;;;;;;;;;;;16.43;66.28;100260.91;5113069;28;19935;-52
2022/06/05 04:32:28;;;;;;;;;;;;;;;16.49;66.36;100269.91;5112701;28;19923;-52
2022/06/05 04:34:55;;;;;;;;;;;;;;;16.56;66.31;100272.09;5112530;28;19931;-51
2022/06/05 04:37:22;;;;;;;;;;;;;;;16.63;65.96;100263.81;5112516;28;19930;-54
2022/06/05 04:39:51;;;;;;;;;;;;;;;16.72;65.85;100255.25;5112636;28;19924;-54
2022/06/05 04:42:18;;;;;;;;;;;;;;;16.80;65.54;100251.44;5112257;28;20296;-52
2022/06/05 04:44:45;;;;;;;;;;;;;;;16.89;65.25;100240.84;5112725;28;19931;-52
2022/06/05 04:47:12;;;;;;;;;;;;;;;16.99;64.90;100245.13;5112330;28;19924;-52
2022/06/05 04:49:39;;;;;;;;;;;;;;;17.11;64.70;100244.19;5112765;28;19931;-53
2022/06/05 04:52:06;;;;;;;;;;;;;;;17.09;64.55;100252.19;5112835;28;19930;-52
2022/06/05 04:54:33;;;;;;;;;;;;;;;17.23;64.71;100246.91;5112168;28;19935;-55
2022/06/05 04:57:02;;;;;;;;;;;;;;;17.37;64.15;100247.25;5112755;28;19923;-52
2022/06/05 04:59:29;;;;;;;;;;;;;;;17.49;63.99;100239.84;5112647;28;19924;-55
2022/06/05 05:01:56;;;;;;;;;;;;;;;17.57;63.92;100250.09;5112677;28;19923;-53
2022/06/05 05:04:26;;;;;;;;;;;;;;;17.63;63.73;100243.00;5112543;28;19931;-52
2022/06/05 05:06:53;;;;;;;;;;;;;;;17.69;63.44;100258.44;5112596;28;19924;-54
2022/06/05 05:09:20;;;;;;;;;;;;;;;17.78;63.29;100264.66;5112409;28;19924;-55
2022/06/05 05:11:47;;;;;;;;;;;;;;;17.79;63.42;100257.84;5112625;28;19924;-52
2022/06/05 05:14:16;;;;;;;;;;;;;;;17.81;63.36;100249.84;5112195;28;19931;-52
2022/06/05 05:16:43;;;;;;;;;;;;;;;17.91;63.01;100256.13;5114344;28;19931;-52
2022/06/05 05:19:10;;;;;;;;;;;;;;;17.97;63.14;100249.00;5116544;28;19923;-55
2022/06/05 05:21:37;;;;;;;;;;;;;;;18.08;62.49;100252.03;5115918;28;19928;-53
2022/06/05 05:24:05;;;;;;;;;;;;;;;18.11;62.29;100254.94;5116858;28;19923;-52
2022/06/05 05:26:33;;;;;;;;;;;;;;;18.08;62.34;100261.34;5115880;28;19931;-55
2022/06/05 05:29:01;;;;;;;;;;;;;;;18.17;62.18;100261.91;5116504;28;19935;-53
2022/06/05 05:31:30;;;;;;;;;;;;;;;18.17;62.15;100266.75;5116074;28;19934;-55
2022/06/05 05:33:58;;;;;;;;;;;;;;;18.24;61.91;100267.69;5116412;28;19923;-53
2022/06/05 05:36:25;;;;;;;;;;;;;;;18.29;61.89;100272.22;5115904;28;19924;-53
2022/06/05 05:44:23;;;;;;;;;;;;;;;18.55;61.46;100268.69;5122766;28;19923;-52
2022/06/05 05:46:51;;;;;;;;;;;;;;;18.67;61.21;100262.09;5115884;28;19924;-52
2022/06/05 05:49:18;;;;;;;;;;;;;;;18.76;60.97;100259.81;5115808;28;20288;-52
2022/06/05 05:51:46;;;;;;;;;;;;;;;18.86;60.89;100259.22;5115489;28;20379;-52
2022/06/05 05:54:13;;;;;;;;;;;;;;;19.00;60.46;100275.63;5115558;28;20390;-53
2022/06/05 05:56:40;;;;;;;;;;;;;;;19.07;60.80;100274.91;5115484;28;20354;-53
2022/06/05 05:59:07;;;;;;;;;;;;;;;19.13;60.68;100273.41;5115740;28;19931;-52
2022/06/05 06:01:35;;;;;;;;;;;;;;;19.13;60.69;100278.22;5115449;28;19930;-52
2022/06/05 06:04:03;;;;;;;;;;;;;;;19.23;60.53;100271.94;5115866;28;19928;-52
2022/06/05 06:06:31;;;;;;;;;;;;;;;19.36;60.02;100261.25;5115272;28;19931;-52
2022/06/05 06:08:59;;;;;;;;;;;;;;;19.48;59.74;100256.19;5115809;28;20395;-52
2022/06/05 06:11:26;;;;;;;;;;;;;;;19.58;59.18;100254.72;5115295;28;19924;-52
2022/06/05 06:13:53;;;;;;;;;;;;;;;19.69;59.28;100260.53;5114960;28;20303;-53
2022/06/05 06:16:20;;;;;;;;;;;;;;;19.72;59.07;100258.97;5115277;28;19923;-52
2022/06/05 06:18:47;;;;;;;;;;;;;;;19.74;58.96;100254.59;5115376;28;19924;-52
2022/06/05 06:21:16;;;;;;;;;;;;;;;19.88;58.99;100253.97;5114938;28;19923;-52
2022/06/05 06:23:42;;;;;;;;;;;;;;;19.87;59.07;100250.31;5115263;28;19924;-55
2022/06/05 06:26:10;;;;;;;;;;;;;;;19.90;59.35;100243.09;5114784;28;20384;-53
2022/06/05 06:28:39;;;;;;;;;;;;;;;20.00;59.52;100233.13;5114311;28;19931;-52
2022/06/05 06:31:07;;;;;;;;;;;;;;;20.13;59.32;100222.38;5114762;28;19923;-53
2022/06/05 06:33:34;;;;;;;;;;;;;;;20.23;58.96;100216.84;5114961;28;20260;-52
2022/06/05 06:36:02;;;;;;;;;;;;;;;20.44;58.42;100209.78;5114982;28;20295;-53
2022/06/05 06:38:30;;;;;;;;;;;;;;;20.62;57.89;100204.31;5114663;28;19924;-52
2022/06/05 06:41:03;;;;;;;;;;;;;;;20.77;56.75;100199.63;5114795;28;20402;-53
2022/06/05 06:43:30;;;;;;;;;;;;;;;20.81;56.40;100189.13;5114464;28;19924;-52
2022/06/05 06:45:57;;;;;;;;;;;;;;;20.92;56.75;100195.72;5114569;28;19924;-55
2022/06/05 06:48:24;;;;;;;;;;;;;;;21.07;56.63;100197.44;5114918;28;19930;-53
2022/06/05 06:50:53;;;;;;;;;;;;;;;21.15;56.11;100197.50;5114457;28;19924;-53
2022/06/05 06:53:20;;;;;;;;;;;;;;;21.24;56.16;100201.63;5114195;28;19931;-55
2022/06/05 06:55:49;;;;;;;;;;;;;;;21.24;57.13;100183.81;5114440;28;19923;-52
2022/06/05 06:58:19;;;;;;;;;;;;;;;21.32;56.86;100174.16;5114633;28;19931;-52
2022/06/05 07:00:46;;;;;;;;;;;;;;;21.48;56.22;100173.84;5114122;28;19924;-53
2022/06/05 07:03:13;;;;;;;;;;;;;;;21.63;55.49;100166.28;5114447;28;19931;-53
2022/06/05 07:05:40;;;;;;;;;;;;;;;21.72;55.22;100161.03;5114314;28;19928;-54
2022/06/05 07:08:09;;;;;;;;;;;;;;;21.91;55.35;100157.06;5114278;28;20249;-54
2022/06/05 07:10:36;;;;;;;;;;;;;;;22.12;54.74;100150.63;5114049;28;19923;-52
2022/06/05 07:13:05;;;;;;;;;;;;;;;22.33;53.90;100137.75;5114161;28;19935;-53
2022/06/05 07:15:35;;;;;;;;;;;;;;;22.55;53.24;100149.91;5113830;28;19924;-54
2022/06/05 07:18:02;;;;;;;;;;;;;;;22.72;52.92;100136.94;5114124;28;20333;-54
2022/06/05 07:20:32;;;;;;;;;;;;;;;22.95;52.35;100131.69;5113614;28;19931;-53
2022/06/05 07:22:59;;;;;;;;;;;;;;;23.18;51.60;100128.44;5114043;28;20275;-55
2022/06/05 07:25:26;;;;;;;;;;;;;;;23.44;50.98;100124.28;5113659;28;19949;-54
2022/06/05 07:27:53;;;;;;;;;;;;;;;23.64;50.33;100116.06;5114160;28;19928;-51
2022/06/05 07:30:22;;;;;;;;;;;;;;;23.86;49.52;100113.16;5114009;28;19930;-51
2022/06/05 07:32:50;;;;;;;;;;;;;;;24.17;49.75;100108.53;5113591;28;19931;-51
2022/06/05 07:35:21;;;;;;;;;;;;;;;24.41;48.82;100111.59;5113889;28;20296;-51
2022/06/05 07:37:48;;;;;;;;;;;;;;;24.50;48.62;100103.41;5113676;28;19924;-51
2022/06/05 07:40:15;;;;;;;;;;;;;;;24.73;48.29;100099.97;5113405;28;19924;-51
2022/06/05 07:42:43;;;;;;;;;;;;;;;24.78;47.87;100098.69;5113507;28;20288;-53
2022/06/05 07:45:13;;;;;;;;;;;;;;;24.97;47.14;100095.28;5113417;28;19924;-51
2022/06/05 07:47:42;;;;;;;;;;;;;;;25.08;46.78;100092.31;5113548;28;20376;-51
2022/06/05 07:50:10;;;;;;;;;;;;;;;25.15;46.77;100103.63;5113828;28;19935;-53
2022/06/05 07:55:22;;;;;;;;;;;;;;;25.22;45.99;100097.88;5113337;28;19938;-51
2022/06/05 07:57:49;;;;;;;;;;;;;;;25.36;46.42;100104.66;5113340;28;19924;-54
2022/06/05 08:00:16;;;;;;;;;;;;;;;25.54;45.56;100104.44;5113257;28;19923;-51
2022/06/05 08:02:48;;;;;;;;;;;;;;;25.78;45.31;100103.31;5113324;28;20291;-52
2022/06/05 08:05:15;;;;;;;;;;;;;;;25.97;44.87;100107.56;5113153;28;19924;-52
2022/06/05 08:07:42;;;;;;;;;;;;;;;26.27;43.94;100103.88;5112656;28;19968;-51
2022/06/05 08:10:09;;;;;;;;;;;;;;;26.59;43.29;100099.72;5112982;28;19923;-54
2022/06/05 08:12:36;;;;;;;;;;;;;;;27.32;42.61;100100.84;5113005;28;19924;-54
2022/06/05 08:15:08;;;;;;;;;;;;;;;27.83;40.55;100092.03;5113297;28;19923;-51
2022/06/05 08:17:36;;;;;;;;;;;;;;;28.70;39.80;100085.09;5113013;28;19924;-51
2022/06/05 08:20:06;;;;;;;;;;;;;;;29.20;38.18;100085.84;5113347;28;19924;-51
2022/06/05 08:22:34;;;;;;;;;;;;;;;30.40;36.70;100079.78;5112712;28;19923;-55
2022/06/05 08:25:01;;;;;;;;;;;;;;;31.20;35.28;100075.00;5112893;28;19946;-53
2022/06/05 08:27:28;;;;;;;;;;;;;;;32.29;33.22;100059.66;5112772;28;19931;-53
2022/06/05 08:29:56;;;;;;;;;;;;;;;33.83;31.50;100057.88;5112932;28;19930;-53
2022/06/05 08:32:24;;;;;;;;;;;;;;;35.03;29.35;100059.31;5113104;28;19924;-55
2022/06/05 08:34:51;;;;;;;;;;;;;;;36.46;26.89;100062.19;5112894;28;19923;-55
2022/06/05 08:43:00;;;;;;;;;;;;;;;39.82;23.44;100063.81;5116450;28;20356;-54
2022/06/05 08:45:30;;;;;;;;;;;;;;;40.13;22.21;100065.69;5112609;28;19924;-54
2022/06/05 08:47:57;;;;;;;;;;;;;;;39.21;22.39;100063.16;5112700;28;19924;-53
2022/06/05 08:50:28;;;;;;;;;;;;;;;37.56;23.89;100069.13;5112633;28;20304;-54
2022/06/05 08:52:58;;;;;;;;;;;;;;;35.41;26.50;100070.13;5116668;28;19939;-53
2022/06/05 08:55:29;;;;;;;;;;;;;;;34.61;28.04;100071.81;5116368;28;19924;-52
2022/06/05 08:58:00;;;;;;;;;;;;;;;33.24;29.56;100068.84;5116603;28;20265;-51
2022/06/05 09:00:31;;;;;;;;;;;;;;;33.01;30.49;100064.47;5116525;28;19924;-51
2022/06/05 09:03:01;;;;;;;;;;;;;;;32.82;30.76;100055.81;5116912;28;19924;-53
2022/06/05 09:05:33;;;;;;;;;;;;;;;32.94;30.78;100057.75;5116261;28;19931;-53
2022/06/05 09:08:04;;;;;;;;;;;;;;;32.57;31.25;100068.44;5116825;28;19923;-51
2022/06/05 09:10:33;;;;;;;;;;;;;;;32.06;32.17;100066.00;5116205;28;20287;-51
2022/06/05 09:13:08;;;;;;;;;;;;;;;31.31;33.31;100069.63;5116736;28;20265;-54
2022/06/05 09:15:38;;;;;;;;;;;;;;;30.91;35.29;100073.13;5116319;28;20371;-53
2022/06/05 09:18:12;;;;;;;;;;;;;;;30.69;35.42;100073.06;5116541;28;19935;-53
2022/06/05 09:20:45;;;;;;;;;;;;;;;29.70;36.78;100067.19;5116052;28;19924;-52
2022/06/05 09:23:18;;;;;;;;;;;;;;;29.04;38.31;100078.88;5116309;28;19924;-52
2022/06/05 09:25:51;;;;;;;;;;;;;;;28.92;38.47;100071.81;5115781;28;20372;-55
2022/06/05 09:28:25;;;;;;;;;;;;;;;28.34;40.04;100081.03;5116788;28;20299;-55
2022/06/05 09:30:56;;;;;;;;;;;;;;;27.74;39.90;100086.91;5116061;28;20292;-54
2022/06/05 09:33:25;;;;;;;;;;;;;;;26.99;39.37;100094.09;5115890;28;19923;-52
2022/06/05 09:35:53;;;;;;;;;;;;;;;26.32;40.64;100091.94;5115179;28;20372;-53
2022/06/05 09:38:24;;;;;;;;;;;;;;;26.35;40.91;100089.47;5115953;28;19924;-52
2022/06/05 09:40:58;;;;;;;;;;;;;;;25.76;42.33;100091.50;5115076;28;19924;-52
2022/06/05 09:43:49;;;;;;;;;;;;;;;25.80;42.38;100091.47;5116120;28;20268;-52
2022/06/05 09:46:36;;;;;;;;;;;;;;;25.88;42.37;100093.78;5104386;28;19924;-52
2022/06/05 09:49:08;;;;;;;;;;;;;;;25.84;42.70;100090.16;5116049;28;19924;-52
2022/06/05 09:51:36;;;;;;;;;;;;;;;25.55;42.97;100092.59;5115383;28;20276;-52
2022/06/05 09:54:07;;;;;;;;;;;;;;;25.40;44.19;100085.47;5115137;28;19923;-51
2022/06/05 09:58:24;;;;;;;;;;;;;;;25.18;45.41;100093.41;5115709;28;19931;-52
2022/06/05 09:59:31;;;;;;;;;;;;;;;24.83;46.80;100086.88;5115016;28;19923;-51
2022/06/05 10:02:01;;;;;;;;;;;;;;;24.50;49.20;100094.88;5115114;28;19931;-52
2022/06/05 10:04:29;;;;;;;;;;;;;;;24.11;51.53;100102.44;5114477;28;19931;-52
2022/06/05 10:06:58;;;;;;;;;;;;;;;23.79;50.96;100096.97;5115061;28;20284;-51
2022/06/05 10:09:28;;;;;;;;;;;;;;;23.29;54.92;100091.44;5115176;28;19972;-52
2022/06/05 10:11:58;;;;;;;;;;;;;;;23.26;55.78;100092.25;5115016;28;19928;-54
2022/06/05 10:14:30;;;;;;;;;;;;;;;22.85;56.65;100089.91;5115323;28;19947;-52
2022/06/05 10:17:05;;;;;;;;;;;;;;;22.68;58.26;100081.00;5114849;28;19924;-52
2022/06/05 10:19:41;;;;;;;;;;;;;;;22.80;57.54;100081.78;5115017;28;19923;-51
2022/06/05 10:22:10;;;;;;;;;;;;;;;22.75;58.50;100087.88;5114901;28;20363;-54
2022/06/05 10:24:48;;;;;;;;;;;;;;;22.81;58.37;100086.25;5114499;28;19924;-51
2022/06/05 10:27:16;;;;;;;;;;;;;;;22.79;57.97;100077.31;5115143;28;19928;-52
2022/06/05 10:29:47;;;;;;;;;;;;;;;22.77;58.46;100072.06;5114714;28;19924;-53
2022/06/05 10:32:19;;;;;;;;;;;;;;;22.94;58.38;100072.44;5114858;28;20245;-53
2022/06/05 10:34:49;;;;;;;;;;;;;;;22.89;58.36;100070.81;5114306;28;19946;-52
2022/06/05 10:37:20;;;;;;;;;;;;;;;22.98;58.04;100074.03;5114894;28;19931;-52
2022/06/05 10:40:01;;;;;;;;;;;;;;;23.10;58.66;100070.78;5114721;28;19928;-55
2022/06/05 10:42:34;;;;;;;;;;;;;;;23.13;58.21;100062.69;5114484;28;19923;-53
2022/06/05 10:45:10;;;;;;;;;;;;;;;23.19;57.82;100061.03;5114520;28;19924;-55
2022/06/05 10:47:41;;;;;;;;;;;;;;;23.24;58.82;100057.75;5114554;28;19931;-52
2022/06/05 10:50:10;;;;;;;;;;;;;;;23.28;58.59;100064.25;5114708;28;19924;-52
2022/06/05 10:52:42;;;;;;;;;;;;;;;23.24;59.12;100063.44;5114343;28;20417;-54
2022/06/05 10:55:21;;;;;;;;;;;;;;;23.23;59.17;100056.16;5113889;28;19924;-54
2022/06/05 10:57:53;;;;;;;;;;;;;;;23.27;59.39;100048.44;5114100;28;19924;-52
2022/06/05 11:00:21;;;;;;;;;;;;;;;23.28;59.84;100048.00;5114468;28;19924;-51
2022/06/05 11:02:52;;;;;;;;;;;;;;;23.30;60.17;100033.38;5114053;28;19923;-51
2022/06/05 11:05:43;;;;;;;;;;;;;;;23.36;59.45;100034.56;5114450;28;20296;-54
2022/06/05 11:08:14;;;;;;;;;;;;;;;23.32;59.76;100036.63;5114157;28;19927;-55
2022/06/05 11:13:42;;;;;;;;;;;;;;;23.43;59.53;100014.63;5114824;28;19927;-53
2022/06/05 11:16:18;;;;;;;;;;;;;;;23.41;58.78;100017.06;5113852;28;19924;-54
2022/06/05 11:18:47;;;;;;;;;;;;;;;23.59;59.79;100005.63;5113943;28;19923;-54
2022/06/05 11:21:17;;;;;;;;;;;;;;;23.77;59.25;100005.56;5113622;28;19923;-55
2022/06/05 11:23:48;;;;;;;;;;;;;;;23.49;58.38;100000.81;5113885;28;19946;-50
2022/06/05 11:26:21;;;;;;;;;;;;;;;23.73;57.78;99996.22;5113956;28;19931;-55
2022/06/05 11:28:53;;;;;;;;;;;;;;;23.79;57.52;99986.03;5113683;28;19931;-53
2022/06/05 11:31:26;;;;;;;;;;;;;;;23.81;56.12;99989.28;5113476;28;20372;-53
2022/06/05 11:33:57;;;;;;;;;;;;;;;23.80;55.49;99999.03;5113737;28;19924;-53
2022/06/05 11:36:25;;;;;;;;;;;;;;;23.86;56.07;99994.50;5113712;28;19931;-52
2022/06/05 11:39:03;;;;;;;;;;;;;;;23.73;55.86;99986.84;5113584;28;20316;-55
2022/06/05 11:41:36;;;;;;;;;;;;;;;23.90;56.55;99968.88;5113642;28;20265;-56
2022/06/05 11:44:19;;;;;;;;;;;;;;;24.11;57.26;99967.91;5113591;28;19949;-56
2022/06/05 11:46:51;;;;;;;;;;;;;;;24.26;57.62;99962.91;5113425;28;20414;-55
2022/06/05 11:49:23;;;;;;;;;;;;;;;24.39;57.24;99966.03;5113664;28;19938;-54
2022/06/05 11:51:59;;;;;;;;;;;;;;;24.44;56.46;99962.72;5113124;28;19924;-51
2022/06/05 11:54:29;;;;;;;;;;;;;;;24.35;56.58;99965.25;5112912;28;19928;-53
2022/06/05 11:57:10;;;;;;;;;;;;;;;24.39;56.10;99957.47;5112870;28;19993;-55
2022/06/05 11:59:41;;;;;;;;;;;;;;;24.37;56.19;99954.25;5113598;28;19924;-54
2022/06/05 12:02:29;;;;;;;;;;;;;;;24.48;56.06;99957.78;5113278;28;19938;-55
2022/06/05 12:05:00;;;;;;;;;;;;;;;24.60;55.90;99954.44;5113262;28;20306;-52
2022/06/05 12:07:27;;;;;;;;;;;;;;;24.62;55.87;99946.28;5113382;28;19946;-54
2022/06/05 12:09:56;;;;;;;;;;;;;;;24.74;55.92;99935.56;5113108;28;20288;-52
2022/06/05 12:12:27;;;;;;;;;;;;;;;24.60;55.50;99936.56;5113267;28;20441;-54
2022/06/05 12:15:02;;;;;;;;;;;;;;;24.59;55.54;99934.91;5113210;28;19923;-51
2022/06/05 12:17:35;;;;;;;;;;;;;;;24.51;55.31;99934.22;5113569;28;20268;-53
2022/06/05 12:20:05;;;;;;;;;;;;;;;24.52;55.82;99925.22;5112968;28;19931;-53
2022/06/05 12:22:38;;;;;;;;;;;;;;;24.38;55.42;99918.84;5112737;28;19923;-52
2022/06/05 12:25:16;;;;;;;;;;;;;;;24.51;55.17;99917.13;5113068;28;19931;-52
2022/06/05 12:27:55;;;;;;;;;;;;;;;24.55;55.55;99926.44;5112492;28;19947;-52
2022/06/05 12:30:24;;;;;;;;;;;;;;;24.67;55.46;99913.69;5113092;28;19923;-53
2022/06/05 12:32:55;;;;;;;;;;;;;;;24.77;55.53;99903.41;5112666;28;19923;-51
2022/06/05 12:35:26;;;;;;;;;;;;;;;24.90;55.25;99910.13;5112746;28;19993;-51
2022/06/05 12:37:58;;;;;;;;;;;;;;;24.99;54.15;99901.91;5112927;28;19923;-51
2022/06/05 12:40:33;;;;;;;;;;;;;;;24.96;54.11;99897.03;5113059;28;19924;-51
2022/06/05 12:43:06;;;;;;;;;;;;;;;24.82;53.79;99886.66;5112779;28;19928;-51
2022/06/05 12:45:37;;;;;;;;;;;;;;;24.86;54.13;99883.72;5112987;28;19924;-51
2022/06/05 12:48:09;;;;;;;;;;;;;;;24.77;54.06;99892.81;5112783;28;19924;-50
2022/06/05 12:50:43;;;;;;;;;;;;;;;24.65;54.30;99894.19;5112617;28;19928;-52
2022/06/05 12:53:15;;;;;;;;;;;;;;;24.54;55.06;99901.22;5112939;28;19924;-53
2022/06/05 12:55:45;;;;;;;;;;;;;;;24.61;55.17;99901.97;5111756;28;19923;-54
2022/06/05 12:58:18;;;;;;;;;;;;;;;24.70;54.96;99902.25;5112664;28;20034;-52
2022/06/05 13:00:49;;;;;;;;;;;;;;;24.64;55.65;99911.69;5112519;28;19931;-51
2022/06/05 13:03:22;;;;;;;;;;;;;;;24.67;55.90;99902.28;5112514;28;19935;-51
2022/06/05 13:05:52;;;;;;;;;;;;;;;24.91;56.51;99894.69;5112458;28;19931;-52
2022/06/05 13:08:24;;;;;;;;;;;;;;;25.06;56.35;99890.38;5112431;28;19923;-52
2022/06/05 13:10:56;;;;;;;;;;;;;;;25.18;55.32;99889.00;5112499;28;19924;-51